sensor_id;sensor_type;location;lat;lon;timestamp;P1;durP1;ratioP1;P2;durP2;ratioP2
52266;SDS011;38223;50.940;4.034;2022-07-23T00:01:43;11.45;;;10.08;;
52266;SDS011;38223;50.940;4.034;2022-07-23T00:04:13;12.05;;;10.63;;
52266;SDS011;38223;50.940;4.034;2022-07-23T00:06:48;11.80;;;10.55;;
52266;SDS011;38223;50.940;4.034;2022-07-23T00:09:18;13.20;;;10.08;;
52266;SDS011;38223;50.940;4.034;2022-07-23T00:11:48;12.47;;;11.30;;
52266;SDS011;38223;50.940;4.034;2022-07-23T00:14:22;12.90;;;10.60;;
52266;SDS011;38223;50.940;4.034;2022-07-23T00:16:55;11.48;;;9.68;;
52266;SDS011;38223;50.940;4.034;2022-07-23T00:19:28;10.43;;;9.33;;
52266;SDS011;38223;50.940;4.034;2022-07-23T00:22:01;10.48;;;9.43;;
52266;SDS011;38223;50.940;4.034;2022-07-23T00:24:32;11.18;;;9.98;;
52266;SDS011;38223;50.940;4.034;2022-07-23T00:27:03;11.60;;;10.38;;
52266;SDS011;38223;50.940;4.034;2022-07-23T00:29:38;10.72;;;9.73;;
52266;SDS011;38223;50.940;4.034;2022-07-23T00:32:10;11.05;;;9.95;;
52266;SDS011;38223;50.940;4.034;2022-07-23T00:34:43;11.35;;;10.20;;
52266;SDS011;38223;50.940;4.034;2022-07-23T00:37:21;11.78;;;10.65;;
52266;SDS011;38223;50.940;4.034;2022-07-23T00:39:51;11.35;;;10.35;;
52266;SDS011;38223;50.940;4.034;2022-07-23T00:42:24;12.30;;;10.80;;
52266;SDS011;38223;50.940;4.034;2022-07-23T00:44:56;12.55;;;11.33;;
52266;SDS011;38223;50.940;4.034;2022-07-23T00:47:28;13.15;;;11.85;;
52266;SDS011;38223;50.940;4.034;2022-07-23T00:50:03;13.45;;;12.05;;
52266;SDS011;38223;50.940;4.034;2022-07-23T00:52:38;13.05;;;11.75;;
52266;SDS011;38223;50.940;4.034;2022-07-23T00:55:16;13.08;;;11.85;;
52266;SDS011;38223;50.940;4.034;2022-07-23T00:57:46;13.35;;;11.93;;
52266;SDS011;38223;50.940;4.034;2022-07-23T01:00:18;13.65;;;12.25;;
52266;SDS011;38223;50.940;4.034;2022-07-23T01:02:51;13.53;;;12.23;;
52266;SDS011;38223;50.940;4.034;2022-07-23T01:05:24;13.20;;;12.03;;
52266;SDS011;38223;50.940;4.034;2022-07-23T01:07:56;14.03;;;12.37;;
52266;SDS011;38223;50.940;4.034;2022-07-23T01:10:27;13.53;;;12.43;;
52266;SDS011;38223;50.940;4.034;2022-07-23T01:13:01;12.58;;;11.43;;
52266;SDS011;38223;50.940;4.034;2022-07-23T01:15:40;13.15;;;11.57;;
52266;SDS011;38223;50.940;4.034;2022-07-23T01:18:14;13.18;;;12.05;;
52266;SDS011;38223;50.940;4.034;2022-07-23T01:20:47;14.15;;;12.65;;
52266;SDS011;38223;50.940;4.034;2022-07-23T01:23:21;13.65;;;12.33;;
52266;SDS011;38223;50.940;4.034;2022-07-23T01:25:52;13.08;;;11.88;;
52266;SDS011;38223;50.940;4.034;2022-07-23T01:28:28;12.70;;;11.75;;
52266;SDS011;38223;50.940;4.034;2022-07-23T01:30:57;13.48;;;12.47;;
52266;SDS011;38223;50.940;4.034;2022-07-23T01:33:29;13.90;;;12.60;;
52266;SDS011;38223;50.940;4.034;2022-07-23T01:36:20;14.47;;;13.00;;
52266;SDS011;38223;50.940;4.034;2022-07-23T01:38:52;13.80;;;12.55;;
52266;SDS011;38223;50.940;4.034;2022-07-23T01:41:23;14.55;;;13.03;;
52266;SDS011;38223;50.940;4.034;2022-07-23T01:43:56;15.20;;;13.60;;
52266;SDS011;38223;50.940;4.034;2022-07-23T01:46:30;14.78;;;13.30;;
52266;SDS011;38223;50.940;4.034;2022-07-23T01:49:06;14.75;;;13.22;;
52266;SDS011;38223;50.940;4.034;2022-07-23T01:51:37;15.23;;;13.80;;
52266;SDS011;38223;50.940;4.034;2022-07-23T01:54:10;16.95;;;13.90;;
52266;SDS011;38223;50.940;4.034;2022-07-23T01:56:43;13.70;;;12.55;;
52266;SDS011;38223;50.940;4.034;2022-07-23T01:59:14;18.37;;;13.62;;
52266;SDS011;38223;50.940;4.034;2022-07-23T02:01:47;14.90;;;13.58;;
52266;SDS011;38223;50.940;4.034;2022-07-23T02:04:20;13.25;;;11.93;;
52266;SDS011;38223;50.940;4.034;2022-07-23T02:06:56;13.72;;;12.73;;
52266;SDS011;38223;50.940;4.034;2022-07-23T02:09:25;14.13;;;12.75;;
52266;SDS011;38223;50.940;4.034;2022-07-23T02:12:01;15.60;;;14.05;;
52266;SDS011;38223;50.940;4.034;2022-07-23T02:14:42;14.90;;;13.40;;
52266;SDS011;38223;50.940;4.034;2022-07-23T02:17:15;15.70;;;12.73;;
52266;SDS011;38223;50.940;4.034;2022-07-23T02:19:45;14.20;;;12.90;;
52266;SDS011;38223;50.940;4.034;2022-07-23T02:22:17;16.30;;;13.58;;
52266;SDS011;38223;50.940;4.034;2022-07-23T02:24:48;15.00;;;13.50;;
52266;SDS011;38223;50.940;4.034;2022-07-23T02:27:19;13.95;;;12.68;;
52266;SDS011;38223;50.940;4.034;2022-07-23T02:29:54;14.45;;;13.00;;
52266;SDS011;38223;50.940;4.034;2022-07-23T02:32:23;13.48;;;12.23;;
52266;SDS011;38223;50.940;4.034;2022-07-23T02:34:58;12.85;;;11.85;;
52266;SDS011;38223;50.940;4.034;2022-07-23T02:37:32;12.55;;;11.45;;
52266;SDS011;38223;50.940;4.034;2022-07-23T02:40:04;16.55;;;13.83;;
52266;SDS011;38223;50.940;4.034;2022-07-23T02:42:38;13.80;;;12.60;;
52266;SDS011;38223;50.940;4.034;2022-07-23T02:45:13;14.00;;;12.55;;
52266;SDS011;38223;50.940;4.034;2022-07-23T02:47:42;16.10;;;14.50;;
52266;SDS011;38223;50.940;4.034;2022-07-23T02:50:15;16.40;;;13.62;;
52266;SDS011;38223;50.940;4.034;2022-07-23T02:52:43;16.27;;;14.78;;
52266;SDS011;38223;50.940;4.034;2022-07-23T02:55:17;16.20;;;14.80;;
52266;SDS011;38223;50.940;4.034;2022-07-23T02:57:47;18.55;;;16.25;;
52266;SDS011;38223;50.940;4.034;2022-07-23T03:00:19;17.95;;;16.40;;
52266;SDS011;38223;50.940;4.034;2022-07-23T03:02:51;16.45;;;14.85;;
52266;SDS011;38223;50.940;4.034;2022-07-23T03:05:25;17.85;;;16.05;;
52266;SDS011;38223;50.940;4.034;2022-07-23T03:07:55;19.70;;;17.73;;
52266;SDS011;38223;50.940;4.034;2022-07-23T03:10:26;18.03;;;16.17;;
52266;SDS011;38223;50.940;4.034;2022-07-23T03:12:55;19.52;;;17.62;;
52266;SDS011;38223;50.940;4.034;2022-07-23T03:15:29;19.30;;;16.73;;
52266;SDS011;38223;50.940;4.034;2022-07-23T03:17:59;19.62;;;17.98;;
52266;SDS011;38223;50.940;4.034;2022-07-23T03:20:32;18.42;;;16.82;;
52266;SDS011;38223;50.940;4.034;2022-07-23T03:23:05;18.92;;;17.07;;
52266;SDS011;38223;50.940;4.034;2022-07-23T03:25:38;16.93;;;15.45;;
52266;SDS011;38223;50.940;4.034;2022-07-23T03:28:12;18.45;;;16.50;;
52266;SDS011;38223;50.940;4.034;2022-07-23T03:30:45;18.85;;;16.27;;
52266;SDS011;38223;50.940;4.034;2022-07-23T03:33:19;22.70;;;15.58;;
52266;SDS011;38223;50.940;4.034;2022-07-23T03:35:51;16.42;;;15.13;;
52266;SDS011;38223;50.940;4.034;2022-07-23T03:38:22;17.10;;;15.50;;
52266;SDS011;38223;50.940;4.034;2022-07-23T03:40:54;15.68;;;14.18;;
52266;SDS011;38223;50.940;4.034;2022-07-23T03:43:26;16.87;;;15.23;;
52266;SDS011;38223;50.940;4.034;2022-07-23T03:45:57;17.05;;;15.53;;
52266;SDS011;38223;50.940;4.034;2022-07-23T03:48:29;17.45;;;15.53;;
52266;SDS011;38223;50.940;4.034;2022-07-23T03:51:03;15.95;;;14.60;;
52266;SDS011;38223;50.940;4.034;2022-07-23T03:53:37;18.00;;;15.53;;
52266;SDS011;38223;50.940;4.034;2022-07-23T03:56:09;17.92;;;16.20;;
52266;SDS011;38223;50.940;4.034;2022-07-23T03:58:42;17.12;;;15.70;;
52266;SDS011;38223;50.940;4.034;2022-07-23T04:01:17;18.05;;;16.32;;
52266;SDS011;38223;50.940;4.034;2022-07-23T04:03:53;17.82;;;16.15;;
52266;SDS011;38223;50.940;4.034;2022-07-23T04:06:27;17.35;;;15.78;;
52266;SDS011;38223;50.940;4.034;2022-07-23T04:09:01;17.32;;;15.68;;
52266;SDS011;38223;50.940;4.034;2022-07-23T04:11:31;18.25;;;16.48;;
52266;SDS011;38223;50.940;4.034;2022-07-23T04:14:04;17.05;;;15.28;;
52266;SDS011;38223;50.940;4.034;2022-07-23T04:16:36;16.40;;;14.73;;
52266;SDS011;38223;50.940;4.034;2022-07-23T04:19:09;16.23;;;14.85;;
52266;SDS011;38223;50.940;4.034;2022-07-23T04:21:45;16.20;;;14.70;;
52266;SDS011;38223;50.940;4.034;2022-07-23T04:24:17;15.38;;;13.95;;
52266;SDS011;38223;50.940;4.034;2022-07-23T04:26:52;16.90;;;15.40;;
52266;SDS011;38223;50.940;4.034;2022-07-23T04:29:21;16.27;;;14.98;;
52266;SDS011;38223;50.940;4.034;2022-07-23T04:31:55;16.73;;;14.95;;
52266;SDS011;38223;50.940;4.034;2022-07-23T04:34:29;16.48;;;14.78;;
52266;SDS011;38223;50.940;4.034;2022-07-23T04:37:00;16.15;;;14.58;;
52266;SDS011;38223;50.940;4.034;2022-07-23T04:39:35;16.02;;;14.53;;
52266;SDS011;38223;50.940;4.034;2022-07-23T04:42:06;16.15;;;14.40;;
52266;SDS011;38223;50.940;4.034;2022-07-23T04:44:39;15.32;;;14.10;;
52266;SDS011;38223;50.940;4.034;2022-07-23T04:47:15;16.55;;;14.65;;
52266;SDS011;38223;50.940;4.034;2022-07-23T04:49:49;15.90;;;14.33;;
52266;SDS011;38223;50.940;4.034;2022-07-23T04:52:20;17.05;;;14.63;;
52266;SDS011;38223;50.940;4.034;2022-07-23T04:54:55;15.88;;;14.33;;
52266;SDS011;38223;50.940;4.034;2022-07-23T04:57:25;16.55;;;14.98;;
52266;SDS011;38223;50.940;4.034;2022-07-23T04:59:59;16.50;;;14.85;;
52266;SDS011;38223;50.940;4.034;2022-07-23T05:02:28;16.52;;;14.95;;
52266;SDS011;38223;50.940;4.034;2022-07-23T05:05:18;15.88;;;14.50;;
52266;SDS011;38223;50.940;4.034;2022-07-23T05:07:50;15.15;;;13.85;;
52266;SDS011;38223;50.940;4.034;2022-07-23T05:10:22;14.23;;;13.10;;
52266;SDS011;38223;50.940;4.034;2022-07-23T05:12:54;15.75;;;14.38;;
52266;SDS011;38223;50.940;4.034;2022-07-23T05:15:25;16.25;;;14.60;;
52266;SDS011;38223;50.940;4.034;2022-07-23T05:17:58;15.00;;;13.65;;
52266;SDS011;38223;50.940;4.034;2022-07-23T05:20:31;15.35;;;13.98;;
52266;SDS011;38223;50.940;4.034;2022-07-23T05:22:58;15.68;;;14.23;;
52266;SDS011;38223;50.940;4.034;2022-07-23T05:25:33;13.83;;;12.73;;
52266;SDS011;38223;50.940;4.034;2022-07-23T05:28:03;16.70;;;13.80;;
52266;SDS011;38223;50.940;4.034;2022-07-23T05:30:39;14.85;;;13.10;;
52266;SDS011;38223;50.940;4.034;2022-07-23T05:33:09;15.08;;;13.65;;
52266;SDS011;38223;50.940;4.034;2022-07-23T05:35:41;15.75;;;13.65;;
52266;SDS011;38223;50.940;4.034;2022-07-23T05:38:12;14.95;;;13.60;;
52266;SDS011;38223;50.940;4.034;2022-07-23T05:40:48;13.78;;;12.75;;
52266;SDS011;38223;50.940;4.034;2022-07-23T05:43:18;14.03;;;12.90;;
52266;SDS011;38223;50.940;4.034;2022-07-23T05:45:51;14.58;;;13.20;;
52266;SDS011;38223;50.940;4.034;2022-07-23T05:48:24;15.25;;;13.75;;
52266;SDS011;38223;50.940;4.034;2022-07-23T05:50:55;15.08;;;13.65;;
52266;SDS011;38223;50.940;4.034;2022-07-23T05:53:30;15.30;;;13.85;;
52266;SDS011;38223;50.940;4.034;2022-07-23T05:55:59;16.17;;;13.98;;
52266;SDS011;38223;50.940;4.034;2022-07-23T05:58:33;15.30;;;13.90;;
52266;SDS011;38223;50.940;4.034;2022-07-23T06:01:02;15.10;;;13.70;;
52266;SDS011;38223;50.940;4.034;2022-07-23T06:03:33;15.08;;;13.85;;
52266;SDS011;38223;50.940;4.034;2022-07-23T06:06:02;15.88;;;13.85;;
52266;SDS011;38223;50.940;4.034;2022-07-23T06:08:37;16.23;;;14.33;;
52266;SDS011;38223;50.940;4.034;2022-07-23T06:11:06;15.60;;;13.98;;
52266;SDS011;38223;50.940;4.034;2022-07-23T06:13:44;15.10;;;13.85;;
52266;SDS011;38223;50.940;4.034;2022-07-23T06:16:13;14.50;;;13.08;;
52266;SDS011;38223;50.940;4.034;2022-07-23T06:18:44;15.72;;;13.68;;
52266;SDS011;38223;50.940;4.034;2022-07-23T06:21:16;16.17;;;13.98;;
52266;SDS011;38223;50.940;4.034;2022-07-23T06:23:47;15.15;;;13.72;;
52266;SDS011;38223;50.940;4.034;2022-07-23T06:26:23;15.15;;;13.65;;
52266;SDS011;38223;50.940;4.034;2022-07-23T06:28:54;14.95;;;13.48;;
52266;SDS011;38223;50.940;4.034;2022-07-23T06:31:27;13.80;;;12.68;;
52266;SDS011;38223;50.940;4.034;2022-07-23T06:34:00;15.08;;;13.65;;
52266;SDS011;38223;50.940;4.034;2022-07-23T06:36:33;14.18;;;12.98;;
52266;SDS011;38223;50.940;4.034;2022-07-23T06:39:06;15.13;;;13.50;;
52266;SDS011;38223;50.940;4.034;2022-07-23T06:41:35;13.25;;;12.18;;
52266;SDS011;38223;50.940;4.034;2022-07-23T06:44:07;13.45;;;12.35;;
52266;SDS011;38223;50.940;4.034;2022-07-23T06:46:41;13.43;;;12.13;;
52266;SDS011;38223;50.940;4.034;2022-07-23T06:49:12;12.45;;;11.35;;
52266;SDS011;38223;50.940;4.034;2022-07-23T06:51:44;12.95;;;11.85;;
52266;SDS011;38223;50.940;4.034;2022-07-23T06:54:26;12.50;;;11.30;;
52266;SDS011;38223;50.940;4.034;2022-07-23T06:57:17;13.22;;;12.13;;
52266;SDS011;38223;50.940;4.034;2022-07-23T06:59:50;12.40;;;11.40;;
52266;SDS011;38223;50.940;4.034;2022-07-23T07:02:20;11.78;;;10.78;;
52266;SDS011;38223;50.940;4.034;2022-07-23T07:04:53;13.35;;;12.15;;
52266;SDS011;38223;50.940;4.034;2022-07-23T07:07:27;12.95;;;11.65;;
52266;SDS011;38223;50.940;4.034;2022-07-23T07:09:59;12.23;;;11.12;;
52266;SDS011;38223;50.940;4.034;2022-07-23T07:12:48;14.87;;;10.82;;
52266;SDS011;38223;50.940;4.034;2022-07-23T07:15:20;13.13;;;11.20;;
52266;SDS011;38223;50.940;4.034;2022-07-23T07:17:52;14.65;;;11.53;;
52266;SDS011;38223;50.940;4.034;2022-07-23T07:20:21;12.82;;;11.53;;
52266;SDS011;38223;50.940;4.034;2022-07-23T07:22:58;12.30;;;11.05;;
52266;SDS011;38223;50.940;4.034;2022-07-23T07:25:30;13.15;;;11.85;;
52266;SDS011;38223;50.940;4.034;2022-07-23T07:28:19;14.20;;;11.48;;
52266;SDS011;38223;50.940;4.034;2022-07-23T07:30:54;13.93;;;11.63;;
52266;SDS011;38223;50.940;4.034;2022-07-23T07:33:25;12.37;;;11.28;;
52266;SDS011;38223;50.940;4.034;2022-07-23T07:35:57;14.30;;;12.15;;
52266;SDS011;38223;50.940;4.034;2022-07-23T07:38:28;13.70;;;12.40;;
52266;SDS011;38223;50.940;4.034;2022-07-23T07:41:02;12.43;;;11.20;;
52266;SDS011;38223;50.940;4.034;2022-07-23T07:43:32;12.37;;;11.28;;
52266;SDS011;38223;50.940;4.034;2022-07-23T07:46:04;12.60;;;11.50;;
52266;SDS011;38223;50.940;4.034;2022-07-23T07:48:37;13.05;;;11.53;;
52266;SDS011;38223;50.940;4.034;2022-07-23T07:51:09;16.15;;;11.97;;
52266;SDS011;38223;50.940;4.034;2022-07-23T07:53:40;15.90;;;12.28;;
52266;SDS011;38223;50.940;4.034;2022-07-23T07:56:13;12.95;;;11.55;;
52266;SDS011;38223;50.940;4.034;2022-07-23T07:58:45;13.83;;;11.12;;
52266;SDS011;38223;50.940;4.034;2022-07-23T08:01:19;11.28;;;10.18;;
52266;SDS011;38223;50.940;4.034;2022-07-23T08:03:47;11.43;;;10.38;;
52266;SDS011;38223;50.940;4.034;2022-07-23T08:06:20;11.05;;;9.98;;
52266;SDS011;38223;50.940;4.034;2022-07-23T08:08:50;14.55;;;11.78;;
52266;SDS011;38223;50.940;4.034;2022-07-23T08:11:24;15.08;;;10.20;;
52266;SDS011;38223;50.940;4.034;2022-07-23T08:13:54;12.73;;;11.63;;
52266;SDS011;38223;50.940;4.034;2022-07-23T08:16:26;11.45;;;10.28;;
52266;SDS011;38223;50.940;4.034;2022-07-23T08:18:56;11.18;;;10.20;;
52266;SDS011;38223;50.940;4.034;2022-07-23T08:21:31;11.08;;;9.93;;
52266;SDS011;38223;50.940;4.034;2022-07-23T08:24:02;11.88;;;10.10;;
52266;SDS011;38223;50.940;4.034;2022-07-23T08:26:34;10.10;;;9.30;;
52266;SDS011;38223;50.940;4.034;2022-07-23T08:31:37;10.55;;;9.45;;
52266;SDS011;38223;50.940;4.034;2022-07-23T08:34:06;10.03;;;9.00;;
52266;SDS011;38223;50.940;4.034;2022-07-23T08:36:40;17.30;;;9.18;;
52266;SDS011;38223;50.940;4.034;2022-07-23T08:39:13;8.70;;;7.90;;
52266;SDS011;38223;50.940;4.034;2022-07-23T08:41:46;8.38;;;7.60;;
52266;SDS011;38223;50.940;4.034;2022-07-23T08:44:19;8.25;;;7.47;;
52266;SDS011;38223;50.940;4.034;2022-07-23T08:46:51;8.20;;;7.50;;
52266;SDS011;38223;50.940;4.034;2022-07-23T08:49:23;8.08;;;6.97;;
52266;SDS011;38223;50.940;4.034;2022-07-23T08:51:54;6.20;;;5.55;;
52266;SDS011;38223;50.940;4.034;2022-07-23T08:54:28;7.22;;;5.47;;
52266;SDS011;38223;50.940;4.034;2022-07-23T08:57:03;6.15;;;5.30;;
52266;SDS011;38223;50.940;4.034;2022-07-23T08:59:35;6.60;;;6.00;;
52266;SDS011;38223;50.940;4.034;2022-07-23T09:02:27;11.18;;;6.22;;
52266;SDS011;38223;50.940;4.034;2022-07-23T09:05:02;6.97;;;6.33;;
52266;SDS011;38223;50.940;4.034;2022-07-23T09:07:32;9.40;;;6.28;;
52266;SDS011;38223;50.940;4.034;2022-07-23T09:10:06;6.72;;;6.15;;
52266;SDS011;38223;50.940;4.034;2022-07-23T09:12:39;6.45;;;5.87;;
52266;SDS011;38223;50.940;4.034;2022-07-23T09:15:08;6.17;;;5.10;;
52266;SDS011;38223;50.940;4.034;2022-07-23T09:17:41;6.53;;;5.37;;
52266;SDS011;38223;50.940;4.034;2022-07-23T09:20:16;8.15;;;5.78;;
52266;SDS011;38223;50.940;4.034;2022-07-23T09:22:49;6.10;;;5.50;;
52266;SDS011;38223;50.940;4.034;2022-07-23T09:25:20;7.67;;;6.85;;
52266;SDS011;38223;50.940;4.034;2022-07-23T09:27:55;5.58;;;5.12;;
52266;SDS011;38223;50.940;4.034;2022-07-23T09:30:31;5.90;;;5.30;;
52266;SDS011;38223;50.940;4.034;2022-07-23T09:33:21;8.25;;;6.15;;
52266;SDS011;38223;50.940;4.034;2022-07-23T09:35:55;5.50;;;5.10;;
52266;SDS011;38223;50.940;4.034;2022-07-23T09:38:27;6.28;;;5.20;;
52266;SDS011;38223;50.940;4.034;2022-07-23T09:41:07;5.53;;;5.00;;
52266;SDS011;38223;50.940;4.034;2022-07-23T09:43:39;5.30;;;4.75;;
52266;SDS011;38223;50.940;4.034;2022-07-23T09:46:25;4.80;;;4.30;;
52266;SDS011;38223;50.940;4.034;2022-07-23T09:48:56;5.53;;;5.00;;
52266;SDS011;38223;50.940;4.034;2022-07-23T09:51:30;5.78;;;4.95;;
52266;SDS011;38223;50.940;4.034;2022-07-23T09:54:03;5.33;;;4.83;;
52266;SDS011;38223;50.940;4.034;2022-07-23T09:56:42;5.40;;;4.55;;
52266;SDS011;38223;50.940;4.034;2022-07-23T09:59:10;5.30;;;4.75;;
52266;SDS011;38223;50.940;4.034;2022-07-23T10:01:44;6.53;;;4.75;;
52266;SDS011;38223;50.940;4.034;2022-07-23T10:04:17;4.45;;;4.05;;
52266;SDS011;38223;50.940;4.034;2022-07-23T10:06:52;4.30;;;3.80;;
52266;SDS011;38223;50.940;4.034;2022-07-23T10:09:29;4.47;;;4.08;;
52266;SDS011;38223;50.940;4.034;2022-07-23T10:12:09;4.53;;;4.08;;
52266;SDS011;38223;50.940;4.034;2022-07-23T10:14:36;4.22;;;3.77;;
52266;SDS011;38223;50.940;4.034;2022-07-23T10:17:10;3.98;;;3.60;;
52266;SDS011;38223;50.940;4.034;2022-07-23T10:19:47;4.58;;;4.17;;
52266;SDS011;38223;50.940;4.034;2022-07-23T10:22:19;6.25;;;3.77;;
52266;SDS011;38223;50.940;4.034;2022-07-23T10:24:58;5.15;;;4.12;;
52266;SDS011;38223;50.940;4.034;2022-07-23T10:30:31;4.83;;;4.12;;
52266;SDS011;38223;50.940;4.034;2022-07-23T10:33:26;4.37;;;3.98;;
52266;SDS011;38223;50.940;4.034;2022-07-23T10:36:03;3.98;;;3.67;;
52266;SDS011;38223;50.940;4.034;2022-07-23T10:41:41;4.37;;;3.98;;
52266;SDS011;38223;50.940;4.034;2022-07-23T10:47:01;6.37;;;3.80;;
52266;SDS011;38223;50.940;4.034;2022-07-23T10:49:48;3.47;;;3.17;;
52266;SDS011;38223;50.940;4.034;2022-07-23T10:52:27;6.20;;;3.27;;
52266;SDS011;38223;50.940;4.034;2022-07-23T10:57:47;3.65;;;3.35;;
52266;SDS011;38223;50.940;4.034;2022-07-23T11:00:25;2.83;;;2.62;;
52266;SDS011;38223;50.940;4.034;2022-07-23T11:02:59;9.35;;;4.28;;
52266;SDS011;38223;50.940;4.034;2022-07-23T11:05:44;4.30;;;3.12;;
52266;SDS011;38223;50.940;4.034;2022-07-23T11:08:16;3.40;;;2.62;;
52266;SDS011;38223;50.940;4.034;2022-07-23T11:13:38;3.70;;;3.30;;
52266;SDS011;38223;50.940;4.034;2022-07-23T11:16:18;4.78;;;3.08;;
52266;SDS011;38223;50.940;4.034;2022-07-23T11:24:05;3.20;;;2.90;;
52266;SDS011;38223;50.940;4.034;2022-07-23T11:26:51;3.72;;;3.35;;
52266;SDS011;38223;50.940;4.034;2022-07-23T11:32:06;3.90;;;3.00;;
52266;SDS011;38223;50.940;4.034;2022-07-23T11:34:49;3.47;;;2.75;;
52266;SDS011;38223;50.940;4.034;2022-07-23T11:37:35;3.50;;;3.20;;
52266;SDS011;38223;50.940;4.034;2022-07-23T11:40:12;2.83;;;2.37;;
52266;SDS011;38223;50.940;4.034;2022-07-23T11:42:53;3.12;;;2.83;;
52266;SDS011;38223;50.940;4.034;2022-07-23T11:45:33;3.35;;;3.05;;
52266;SDS011;38223;50.940;4.034;2022-07-23T11:48:07;3.35;;;2.45;;
52266;SDS011;38223;50.940;4.034;2022-07-23T11:50:42;3.20;;;2.85;;
52266;SDS011;38223;50.940;4.034;2022-07-23T11:53:20;3.02;;;2.70;;
52266;SDS011;38223;50.940;4.034;2022-07-23T11:56:08;6.12;;;3.60;;
52266;SDS011;38223;50.940;4.034;2022-07-23T11:58:41;3.35;;;3.12;;
52266;SDS011;38223;50.940;4.034;2022-07-23T12:01:12;5.65;;;2.62;;
52266;SDS011;38223;50.940;4.034;2022-07-23T12:03:52;3.27;;;2.98;;
52266;SDS011;38223;50.940;4.034;2022-07-23T12:06:21;2.98;;;2.67;;
52266;SDS011;38223;50.940;4.034;2022-07-23T12:11:21;2.85;;;2.50;;
52266;SDS011;38223;50.940;4.034;2022-07-23T12:13:56;3.15;;;2.50;;
52266;SDS011;38223;50.940;4.034;2022-07-23T12:16:32;4.78;;;2.72;;
52266;SDS011;38223;50.940;4.034;2022-07-23T12:19:01;3.02;;;2.77;;
52266;SDS011;38223;50.940;4.034;2022-07-23T12:29:45;4.90;;;2.30;;
52266;SDS011;38223;50.940;4.034;2022-07-23T12:32:27;2.87;;;2.60;;
52266;SDS011;38223;50.940;4.034;2022-07-23T12:37:39;3.00;;;2.58;;
52266;SDS011;38223;50.940;4.034;2022-07-23T12:40:26;3.62;;;2.37;;
52266;SDS011;38223;50.940;4.034;2022-07-23T12:42:58;2.40;;;2.00;;
52266;SDS011;38223;50.940;4.034;2022-07-23T12:45:49;3.72;;;2.35;;
52266;SDS011;38223;50.940;4.034;2022-07-23T12:48:33;3.65;;;2.20;;
52266;SDS011;38223;50.940;4.034;2022-07-23T12:51:21;3.80;;;2.20;;
52266;SDS011;38223;50.940;4.034;2022-07-23T12:54:08;3.77;;;2.12;;
52266;SDS011;38223;50.940;4.034;2022-07-23T12:56:44;3.75;;;2.40;;
52266;SDS011;38223;50.940;4.034;2022-07-23T12:59:14;3.83;;;2.90;;
52266;SDS011;38223;50.940;4.034;2022-07-23T13:01:56;3.30;;;2.98;;
52266;SDS011;38223;50.940;4.034;2022-07-23T13:04:27;3.90;;;2.83;;
52266;SDS011;38223;50.940;4.034;2022-07-23T13:07:01;4.62;;;2.60;;
52266;SDS011;38223;50.940;4.034;2022-07-23T13:09:33;3.90;;;2.60;;
52266;SDS011;38223;50.940;4.034;2022-07-23T13:12:07;3.20;;;2.90;;
52266;SDS011;38223;50.940;4.034;2022-07-23T13:14:39;3.80;;;2.50;;
52266;SDS011;38223;50.940;4.034;2022-07-23T13:17:10;2.60;;;2.40;;
52266;SDS011;38223;50.940;4.034;2022-07-23T13:19:42;2.83;;;2.52;;
52266;SDS011;38223;50.940;4.034;2022-07-23T13:22:14;2.98;;;2.40;;
52266;SDS011;38223;50.940;4.034;2022-07-23T13:24:44;2.72;;;2.25;;
52266;SDS011;38223;50.940;4.034;2022-07-23T13:27:12;3.85;;;2.70;;
52266;SDS011;38223;50.940;4.034;2022-07-23T13:29:40;6.25;;;2.50;;
52266;SDS011;38223;50.940;4.034;2022-07-23T13:32:08;3.10;;;2.80;;
52266;SDS011;38223;50.940;4.034;2022-07-23T13:34:37;2.85;;;2.60;;
52266;SDS011;38223;50.940;4.034;2022-07-23T13:37:10;3.98;;;3.20;;
52266;SDS011;38223;50.940;4.034;2022-07-23T13:39:42;4.35;;;3.05;;
52266;SDS011;38223;50.940;4.034;2022-07-23T13:42:18;3.05;;;2.85;;
52266;SDS011;38223;50.940;4.034;2022-07-23T13:44:47;4.42;;;2.40;;
52266;SDS011;38223;50.940;4.034;2022-07-23T13:47:21;3.30;;;2.65;;
52266;SDS011;38223;50.940;4.034;2022-07-23T13:49:53;2.80;;;2.47;;
52266;SDS011;38223;50.940;4.034;2022-07-23T13:52:28;5.47;;;2.87;;
52266;SDS011;38223;50.940;4.034;2022-07-23T13:55:04;6.95;;;3.15;;
52266;SDS011;38223;50.940;4.034;2022-07-23T13:57:39;6.10;;;3.00;;
52266;SDS011;38223;50.940;4.034;2022-07-23T14:00:11;9.23;;;2.60;;
52266;SDS011;38223;50.940;4.034;2022-07-23T14:02:44;6.42;;;3.02;;
52266;SDS011;38223;50.940;4.034;2022-07-23T14:05:17;3.52;;;3.20;;
52266;SDS011;38223;50.940;4.034;2022-07-23T14:07:49;4.78;;;2.77;;
52266;SDS011;38223;50.940;4.034;2022-07-23T14:10:25;3.02;;;2.60;;
52266;SDS011;38223;50.940;4.034;2022-07-23T14:12:59;3.52;;;3.08;;
52266;SDS011;38223;50.940;4.034;2022-07-23T14:15:34;5.83;;;3.10;;
52266;SDS011;38223;50.940;4.034;2022-07-23T14:18:05;4.62;;;2.75;;
52266;SDS011;38223;50.940;4.034;2022-07-23T14:20:41;7.85;;;3.12;;
52266;SDS011;38223;50.940;4.034;2022-07-23T14:23:11;4.58;;;3.05;;
52266;SDS011;38223;50.940;4.034;2022-07-23T14:25:42;3.72;;;3.17;;
52266;SDS011;38223;50.940;4.034;2022-07-23T14:28:13;3.70;;;3.10;;
52266;SDS011;38223;50.940;4.034;2022-07-23T14:30:44;3.55;;;3.25;;
52266;SDS011;38223;50.940;4.034;2022-07-23T14:33:15;5.12;;;3.67;;
52266;SDS011;38223;50.940;4.034;2022-07-23T14:35:50;8.40;;;3.47;;
52266;SDS011;38223;50.940;4.034;2022-07-23T14:38:20;3.80;;;3.42;;
52266;SDS011;38223;50.940;4.034;2022-07-23T14:40:53;5.45;;;3.25;;
52266;SDS011;38223;50.940;4.034;2022-07-23T14:43:27;5.10;;;2.80;;
52266;SDS011;38223;50.940;4.034;2022-07-23T14:46:05;4.92;;;3.70;;
52266;SDS011;38223;50.940;4.034;2022-07-23T14:48:39;3.52;;;3.22;;
52266;SDS011;38223;50.940;4.034;2022-07-23T14:51:12;3.72;;;3.42;;
52266;SDS011;38223;50.940;4.034;2022-07-23T14:53:43;3.62;;;3.37;;
52266;SDS011;38223;50.940;4.034;2022-07-23T14:56:20;5.03;;;3.50;;
52266;SDS011;38223;50.940;4.034;2022-07-23T14:58:53;4.70;;;3.37;;
52266;SDS011;38223;50.940;4.034;2022-07-23T15:01:27;4.17;;;3.77;;
52266;SDS011;38223;50.940;4.034;2022-07-23T15:03:58;4.35;;;3.30;;
52266;SDS011;38223;50.940;4.034;2022-07-23T15:06:32;3.98;;;3.65;;
52266;SDS011;38223;50.940;4.034;2022-07-23T15:09:05;4.67;;;3.80;;
52266;SDS011;38223;50.940;4.034;2022-07-23T15:11:37;4.20;;;3.80;;
52266;SDS011;38223;50.940;4.034;2022-07-23T15:14:10;5.65;;;3.85;;
52266;SDS011;38223;50.940;4.034;2022-07-23T15:16:39;3.60;;;3.30;;
52266;SDS011;38223;50.940;4.034;2022-07-23T15:19:14;4.50;;;3.50;;
52266;SDS011;38223;50.940;4.034;2022-07-23T15:21:46;5.33;;;3.37;;
52266;SDS011;38223;50.940;4.034;2022-07-23T15:24:20;4.78;;;3.42;;
52266;SDS011;38223;50.940;4.034;2022-07-23T15:26:53;4.08;;;3.45;;
52266;SDS011;38223;50.940;4.034;2022-07-23T15:29:21;5.80;;;3.62;;
52266;SDS011;38223;50.940;4.034;2022-07-23T15:31:53;6.17;;;3.92;;
52266;SDS011;38223;50.940;4.034;2022-07-23T15:34:27;4.08;;;3.77;;
52266;SDS011;38223;50.940;4.034;2022-07-23T15:36:59;3.80;;;3.50;;
52266;SDS011;38223;50.940;4.034;2022-07-23T15:39:32;3.83;;;3.52;;
52266;SDS011;38223;50.940;4.034;2022-07-23T15:42:02;3.85;;;3.47;;
52266;SDS011;38223;50.940;4.034;2022-07-23T15:44:36;3.87;;;3.52;;
52266;SDS011;38223;50.940;4.034;2022-07-23T15:47:11;4.17;;;3.75;;
52266;SDS011;38223;50.940;4.034;2022-07-23T15:49:45;4.37;;;4.00;;